sensor_id;sensor_type;location;lat;lon;timestamp;pressure;altitude;pressure_sealevel;temperature;humidity
75063;BME280;63981;51.052;13.754;2022-12-26T00:01:20;100070.28;;;10.23;74.81
75063;BME280;63981;51.052;13.754;2022-12-26T00:03:45;100075.19;;;10.15;74.91
75063;BME280;63981;51.052;13.754;2022-12-26T00:06:18;100034.59;;;9.92;74.79
75063;BME280;63981;51.052;13.754;2022-12-26T00:08:44;100046.09;;;9.91;75.43
75063;BME280;63981;51.052;13.754;2022-12-26T00:11:11;100053.00;;;9.80;76.00
75063;BME280;63981;51.052;13.754;2022-12-26T00:13:37;100052.63;;;10.11;74.92
75063;BME280;63981;51.052;13.754;2022-12-26T00:16:10;100068.00;;;9.92;75.55
75063;BME280;63981;51.052;13.754;2022-12-26T00:18:36;100066.31;;;10.30;74.52
75063;BME280;63981;51.052;13.754;2022-12-26T00:21:03;100054.72;;;10.33;73.92
75063;BME280;63981;51.052;13.754;2022-12-26T00:23:31;100063.34;;;10.35;73.49
75063;BME280;63981;51.052;13.754;2022-12-26T00:26:04;100043.06;;;10.10;74.40
75063;BME280;63981;51.052;13.754;2022-12-26T00:28:30;100066.38;;;9.89;75.75
75063;BME280;63981;51.052;13.754;2022-12-26T00:30:55;100069.97;;;10.41;74.53
75063;BME280;63981;51.052;13.754;2022-12-26T00:33:21;100055.28;;;10.11;75.09
75063;BME280;63981;51.052;13.754;2022-12-26T00:35:47;100071.69;;;10.42;74.59
75063;BME280;63981;51.052;13.754;2022-12-26T00:38:12;100031.72;;;10.22;74.22
75063;BME280;63981;51.052;13.754;2022-12-26T00:40:38;100063.63;;;10.18;75.01
75063;BME280;63981;51.052;13.754;2022-12-26T00:43:09;100055.00;;;10.28;74.58
75063;BME280;63981;51.052;13.754;2022-12-26T00:45:35;100061.66;;;10.21;74.74
75063;BME280;63981;51.052;13.754;2022-12-26T00:48:01;100042.88;;;10.26;74.38
75063;BME280;63981;51.052;13.754;2022-12-26T00:50:26;100057.66;;;10.41;74.43
75063;BME280;63981;51.052;13.754;2022-12-26T00:52:52;100065.25;;;9.93;75.31
75063;BME280;63981;51.052;13.754;2022-12-26T00:55:18;100032.88;;;9.79;76.10
75063;BME280;63981;51.052;13.754;2022-12-26T00:57:44;100049.13;;;9.98;76.03
75063;BME280;63981;51.052;13.754;2022-12-26T01:00:10;100022.50;;;9.90;75.46
75063;BME280;63981;51.052;13.754;2022-12-26T01:02:36;100048.41;;;9.96;75.87
75063;BME280;63981;51.052;13.754;2022-12-26T01:05:03;100040.88;;;9.77;75.91
75063;BME280;63981;51.052;13.754;2022-12-26T01:07:32;100057.16;;;10.09;75.06
75063;BME280;63981;51.052;13.754;2022-12-26T01:09:58;100045.34;;;10.29;74.04
75063;BME280;63981;51.052;13.754;2022-12-26T01:12:24;100064.28;;;10.21;74.52
75063;BME280;63981;51.052;13.754;2022-12-26T01:14:54;100043.56;;;10.15;74.84
75063;BME280;63981;51.052;13.754;2022-12-26T01:17:19;100057.25;;;9.95;75.01
75063;BME280;63981;51.052;13.754;2022-12-26T01:19:45;100054.75;;;10.06;75.23
75063;BME280;63981;51.052;13.754;2022-12-26T01:22:11;100060.22;;;9.76;76.36
75063;BME280;63981;51.052;13.754;2022-12-26T01:24:36;100072.53;;;9.75;76.39
75063;BME280;63981;51.052;13.754;2022-12-26T01:27:02;100062.13;;;10.14;74.47
75063;BME280;63981;51.052;13.754;2022-12-26T01:29:28;100055.13;;;10.00;74.87
75063;BME280;63981;51.052;13.754;2022-12-26T01:31:53;100059.09;;;9.80;75.73
75063;BME280;63981;51.052;13.754;2022-12-26T01:34:20;100030.19;;;9.93;74.92
75063;BME280;63981;51.052;13.754;2022-12-26T01:36:45;100031.03;;;10.06;74.87
75063;BME280;63981;51.052;13.754;2022-12-26T01:39:11;100044.00;;;10.09;74.42
75063;BME280;63981;51.052;13.754;2022-12-26T01:41:37;100048.66;;;10.18;74.55
75063;BME280;63981;51.052;13.754;2022-12-26T01:44:53;100051.13;;;10.21;74.17
75063;BME280;63981;51.052;13.754;2022-12-26T01:46:52;100048.63;;;10.05;74.67
75063;BME280;63981;51.052;13.754;2022-12-26T01:49:29;100048.66;;;10.18;74.04
75063;BME280;63981;51.052;13.754;2022-12-26T01:51:59;100037.13;;;9.94;74.96
75063;BME280;63981;51.052;13.754;2022-12-26T01:54:29;100044.78;;;9.84;75.89
75063;BME280;63981;51.052;13.754;2022-12-26T01:57:00;100050.31;;;9.67;76.05
75063;BME280;63981;51.052;13.754;2022-12-26T01:59:29;100053.72;;;9.82;75.80
75063;BME280;63981;51.052;13.754;2022-12-26T02:01:58;100042.50;;;9.92;75.69
75063;BME280;63981;51.052;13.754;2022-12-26T02:04:30;100033.31;;;9.85;75.48
75063;BME280;63981;51.052;13.754;2022-12-26T02:07:15;100030.59;;;9.60;75.41
75063;BME280;63981;51.052;13.754;2022-12-26T02:09:42;100040.22;;;10.13;74.50
75063;BME280;63981;51.052;13.754;2022-12-26T02:12:27;100035.16;;;10.10;74.44
75063;BME280;63981;51.052;13.754;2022-12-26T02:14:56;100034.03;;;9.48;75.69
75063;BME280;63981;51.052;13.754;2022-12-26T02:17:24;100048.38;;;9.83;75.35
75063;BME280;63981;51.052;13.754;2022-12-26T02:19:59;100028.44;;;9.66;75.56
75063;BME280;63981;51.052;13.754;2022-12-26T02:31:21;100045.47;;;9.73;75.92
75063;BME280;63981;51.052;13.754;2022-12-26T02:34:18;100052.94;;;9.67;76.31
75063;BME280;63981;51.052;13.754;2022-12-26T02:42:08;100035.31;;;10.21;73.66
75063;BME280;63981;51.052;13.754;2022-12-26T02:44:58;100040.47;;;10.23;73.24
75063;BME280;63981;51.052;13.754;2022-12-26T02:53:51;100038.63;;;10.11;74.23
75063;BME280;63981;51.052;13.754;2022-12-26T02:56:42;100041.69;;;10.04;74.03
75063;BME280;63981;51.052;13.754;2022-12-26T03:02:38;100046.41;;;10.12;74.18
75063;BME280;63981;51.052;13.754;2022-12-26T03:05:37;100021.28;;;9.68;74.96
75063;BME280;63981;51.052;13.754;2022-12-26T03:11:41;100034.94;;;10.13;73.52
75063;BME280;63981;51.052;13.754;2022-12-26T03:14:43;100037.94;;;10.21;73.64
75063;BME280;63981;51.052;13.754;2022-12-26T03:17:23;100035.25;;;10.09;74.12
75063;BME280;63981;51.052;13.754;2022-12-26T03:19:53;100031.97;;;9.92;74.82
75063;BME280;63981;51.052;13.754;2022-12-26T03:22:33;100026.41;;;10.10;74.13
75063;BME280;63981;51.052;13.754;2022-12-26T03:25:05;100006.41;;;10.07;73.55
75063;BME280;63981;51.052;13.754;2022-12-26T03:27:50;100030.47;;;9.88;74.65
75063;BME280;63981;51.052;13.754;2022-12-26T03:30:17;100017.06;;;10.18;74.06
75063;BME280;63981;51.052;13.754;2022-12-26T03:33:01;100003.41;;;9.99;74.24
75063;BME280;63981;51.052;13.754;2022-12-26T03:35:30;100018.34;;;10.38;73.40
75063;BME280;63981;51.052;13.754;2022-12-26T03:38:12;100032.06;;;10.43;72.67
75063;BME280;63981;51.052;13.754;2022-12-26T03:40:41;100023.94;;;10.33;73.24
75063;BME280;63981;51.052;13.754;2022-12-26T03:49:32;100015.09;;;10.34;72.71
75063;BME280;63981;51.052;13.754;2022-12-26T03:52:31;100021.31;;;10.46;72.13
75063;BME280;63981;51.052;13.754;2022-12-26T03:55:30;100029.84;;;10.37;72.57
75063;BME280;63981;51.052;13.754;2022-12-26T04:01:08;100037.38;;;10.16;73.45
75063;BME280;63981;51.052;13.754;2022-12-26T04:03:57;100042.72;;;10.29;73.01
75063;BME280;63981;51.052;13.754;2022-12-26T04:07:09;100041.88;;;10.14;73.59
75063;BME280;63981;51.052;13.754;2022-12-26T04:10:06;100042.84;;;10.13;73.95
75063;BME280;63981;51.052;13.754;2022-12-26T04:12:53;100039.63;;;10.22;73.47
75063;BME280;63981;51.052;13.754;2022-12-26T04:15:59;100045.53;;;10.26;73.37
75063;BME280;63981;51.052;13.754;2022-12-26T04:18:55;100048.38;;;10.23;73.03
75063;BME280;63981;51.052;13.754;2022-12-26T04:21:50;100061.31;;;9.86;73.91
75063;BME280;63981;51.052;13.754;2022-12-26T04:24:43;100064.34;;;10.07;73.83
75063;BME280;63981;51.052;13.754;2022-12-26T04:27:30;100061.53;;;10.23;73.56
75063;BME280;63981;51.052;13.754;2022-12-26T04:30:15;100066.53;;;10.13;73.73
75063;BME280;63981;51.052;13.754;2022-12-26T04:33:24;100064.75;;;10.14;74.15
75063;BME280;63981;51.052;13.754;2022-12-26T04:36:19;100016.75;;;9.70;74.72
75063;BME280;63981;51.052;13.754;2022-12-26T04:39:09;100021.56;;;10.03;73.76
75063;BME280;63981;51.052;13.754;2022-12-26T04:41:56;100050.28;;;10.72;73.00
75063;BME280;63981;51.052;13.754;2022-12-26T04:44:42;100046.78;;;10.97;72.53
75063;BME280;63981;51.052;13.754;2022-12-26T04:47:09;100044.44;;;11.41;71.65
75063;BME280;63981;51.052;13.754;2022-12-26T04:49:42;100045.22;;;11.78;69.91
75063;BME280;63981;51.052;13.754;2022-12-26T04:52:28;100039.66;;;11.94;69.42
75063;BME280;63981;51.052;13.754;2022-12-26T04:55:14;100044.59;;;12.34;68.04
75063;BME280;63981;51.052;13.754;2022-12-26T04:57:40;100036.06;;;12.30;68.24
75063;BME280;63981;51.052;13.754;2022-12-26T05:00:06;100044.25;;;12.38;68.02
75063;BME280;63981;51.052;13.754;2022-12-26T05:02:31;100048.56;;;12.28;68.56
75063;BME280;63981;51.052;13.754;2022-12-26T05:05:16;100041.03;;;12.57;67.39
75063;BME280;63981;51.052;13.754;2022-12-26T05:08:00;100045.72;;;12.87;66.11
75063;BME280;63981;51.052;13.754;2022-12-26T05:10:44;100039.84;;;12.95;66.10
75063;BME280;63981;51.052;13.754;2022-12-26T05:13:10;100034.28;;;13.09;65.64
75063;BME280;63981;51.052;13.754;2022-12-26T05:15:35;100021.44;;;12.82;66.31
75063;BME280;63981;51.052;13.754;2022-12-26T05:18:21;100016.41;;;12.90;66.34
75063;BME280;63981;51.052;13.754;2022-12-26T05:21:11;100022.75;;;13.21;64.53
75063;BME280;63981;51.052;13.754;2022-12-26T05:23:56;100036.47;;;13.15;65.52
75063;BME280;63981;51.052;13.754;2022-12-26T05:26:41;100020.72;;;12.91;65.40
75063;BME280;63981;51.052;13.754;2022-12-26T05:29:25;100036.56;;;13.25;65.13
75063;BME280;63981;51.052;13.754;2022-12-26T05:31:51;100022.03;;;13.19;65.14
75063;BME280;63981;51.052;13.754;2022-12-26T05:34:17;100018.28;;;12.99;65.12
75063;BME280;63981;51.052;13.754;2022-12-26T05:36:50;100025.38;;;12.88;66.37
75063;BME280;63981;51.052;13.754;2022-12-26T05:39:17;100032.03;;;13.05;65.45
75063;BME280;63981;51.052;13.754;2022-12-26T05:41:43;99977.44;;;12.92;64.52
75063;BME280;63981;51.052;13.754;2022-12-26T05:44:10;100041.38;;;13.31;64.26
75063;BME280;63981;51.052;13.754;2022-12-26T05:46:36;99998.66;;;13.36;63.61
75063;BME280;63981;51.052;13.754;2022-12-26T05:49:03;100026.31;;;13.43;63.50
75063;BME280;63981;51.052;13.754;2022-12-26T05:51:29;100022.94;;;13.41;63.43
75063;BME280;63981;51.052;13.754;2022-12-26T05:53:55;100032.44;;;13.54;63.32
75063;BME280;63981;51.052;13.754;2022-12-26T05:56:21;100011.50;;;13.40;63.90
75063;BME280;63981;51.052;13.754;2022-12-26T05:58:46;100026.00;;;13.25;64.48
75063;BME280;63981;51.052;13.754;2022-12-26T08:02:27;100117.38;;;12.73;66.28
75063;BME280;63981;51.052;13.754;2022-12-26T08:04:52;100117.69;;;12.57;66.89
75063;BME280;63981;51.052;13.754;2022-12-26T08:07:18;100114.38;;;12.78;65.81
75063;BME280;63981;51.052;13.754;2022-12-26T08:09:44;100089.97;;;12.85;65.30
75063;BME280;63981;51.052;13.754;2022-12-26T08:12:09;100055.34;;;12.99;64.10
75063;BME280;63981;51.052;13.754;2022-12-26T08:14:36;100100.69;;;13.06;64.17
75063;BME280;63981;51.052;13.754;2022-12-26T08:17:02;100113.00;;;13.30;63.54
75063;BME280;63981;51.052;13.754;2022-12-26T08:19:27;100110.28;;;13.52;62.91
75063;BME280;63981;51.052;13.754;2022-12-26T08:21:53;100102.03;;;13.45;62.35
75063;BME280;63981;51.052;13.754;2022-12-26T08:24:19;100099.34;;;13.56;62.41
75063;BME280;63981;51.052;13.754;2022-12-26T08:26:44;100121.25;;;13.58;62.39
75063;BME280;63981;51.052;13.754;2022-12-26T08:29:10;100127.84;;;13.75;62.89
75063;BME280;63981;51.052;13.754;2022-12-26T08:31:36;100123.53;;;13.63;62.53
75063;BME280;63981;51.052;13.754;2022-12-26T08:34:02;100115.75;;;13.94;61.57
75063;BME280;63981;51.052;13.754;2022-12-26T08:36:28;100125.78;;;13.79;61.86
75063;BME280;63981;51.052;13.754;2022-12-26T08:38:53;100067.25;;;13.82;60.38
75063;BME280;63981;51.052;13.754;2022-12-26T08:41:19;100085.00;;;13.59;61.62
75063;BME280;63981;51.052;13.754;2022-12-26T08:43:49;100112.31;;;13.71;61.47
75063;BME280;63981;51.052;13.754;2022-12-26T08:46:16;100104.63;;;13.68;62.49
75063;BME280;63981;51.052;13.754;2022-12-26T08:48:42;100106.78;;;13.63;62.43
75063;BME280;63981;51.052;13.754;2022-12-26T08:51:13;100110.44;;;13.39;63.49
75063;BME280;63981;51.052;13.754;2022-12-26T08:53:39;100113.28;;;13.70;62.53
75063;BME280;63981;51.052;13.754;2022-12-26T08:56:07;100111.31;;;14.15;61.14
75063;BME280;63981;51.052;13.754;2022-12-26T08:58:34;100121.00;;;14.05;61.27
75063;BME280;63981;51.052;13.754;2022-12-26T09:01:12;100091.81;;;13.84;61.11
75063;BME280;63981;51.052;13.754;2022-12-26T09:03:39;100118.56;;;13.81;61.26
75063;BME280;63981;51.052;13.754;2022-12-26T09:06:06;100122.16;;;13.80;62.15
75063;BME280;63981;51.052;13.754;2022-12-26T09:08:32;100102.44;;;14.05;61.02
75063;BME280;63981;51.052;13.754;2022-12-26T09:11:12;100109.28;;;13.75;61.78
75063;BME280;63981;51.052;13.754;2022-12-26T09:13:39;100080.94;;;13.55;62.56
75063;BME280;63981;51.052;13.754;2022-12-26T09:16:17;100114.56;;;13.86;62.36
75063;BME280;63981;51.052;13.754;2022-12-26T09:18:44;100118.38;;;14.26;60.20
75063;BME280;63981;51.052;13.754;2022-12-26T09:21:11;100112.50;;;14.43;60.22
75063;BME280;63981;51.052;13.754;2022-12-26T09:23:38;100115.16;;;14.43;60.59
75063;BME280;63981;51.052;13.754;2022-12-26T09:26:09;100123.47;;;14.91;58.46
75063;BME280;63981;51.052;13.754;2022-12-26T09:28:37;100100.91;;;15.37;56.71
75063;BME280;63981;51.052;13.754;2022-12-26T09:31:08;100131.66;;;16.38;55.02
75063;BME280;63981;51.052;13.754;2022-12-26T09:33:35;100117.88;;;17.00;51.75
75063;BME280;63981;51.052;13.754;2022-12-26T09:36:05;100113.22;;;17.02;52.85
75063;BME280;63981;51.052;13.754;2022-12-26T09:38:32;100110.25;;;17.43;51.02
75063;BME280;63981;51.052;13.754;2022-12-26T09:50:10;100130.94;;;15.38;55.83
75063;BME280;63981;51.052;13.754;2022-12-26T09:52:51;100127.59;;;15.45;56.51
75063;BME280;63981;51.052;13.754;2022-12-26T09:55:45;100140.47;;;15.40;55.95
75063;BME280;63981;51.052;13.754;2022-12-26T10:01:19;100128.91;;;14.90;58.31
75063;BME280;63981;51.052;13.754;2022-12-26T10:03:54;100120.06;;;14.59;58.76
75063;BME280;63981;51.052;13.754;2022-12-26T10:06:25;100098.25;;;14.55;58.99
75063;BME280;63981;51.052;13.754;2022-12-26T10:12:01;100104.25;;;14.57;58.05
75063;BME280;63981;51.052;13.754;2022-12-26T10:23:25;100111.56;;;14.44;59.68
75063;BME280;63981;51.052;13.754;2022-12-26T10:26:03;100132.91;;;14.10;61.37
75063;BME280;63981;51.052;13.754;2022-12-26T10:28:35;100110.50;;;13.82;62.10
75063;BME280;63981;51.052;13.754;2022-12-26T10:31:15;100128.41;;;13.79;62.70
75063;BME280;63981;51.052;13.754;2022-12-26T10:33:48;100114.94;;;14.14;61.56
75063;BME280;63981;51.052;13.754;2022-12-26T10:36:22;100122.81;;;14.04;62.14
75063;BME280;63981;51.052;13.754;2022-12-26T10:38:52;100098.59;;;14.30;61.00
75063;BME280;63981;51.052;13.754;2022-12-26T10:41:26;100101.31;;;14.39;60.70
75063;BME280;63981;51.052;13.754;2022-12-26T10:43:52;100108.81;;;14.45;61.42
75063;BME280;63981;51.052;13.754;2022-12-26T10:46:33;100091.69;;;14.38;61.50
75063;BME280;63981;51.052;13.754;2022-12-26T10:49:08;100101.06;;;14.42;61.14
75063;BME280;63981;51.052;13.754;2022-12-26T10:51:35;100052.19;;;14.56;59.83
75063;BME280;63981;51.052;13.754;2022-12-26T10:54:02;100061.38;;;14.73;59.54
75063;BME280;63981;51.052;13.754;2022-12-26T10:56:33;100084.78;;;15.29;58.93
75063;BME280;63981;51.052;13.754;2022-12-26T10:59:01;100086.13;;;15.23;58.32
75063;BME280;63981;51.052;13.754;2022-12-26T11:01:29;100099.72;;;15.70;57.33
75063;BME280;63981;51.052;13.754;2022-12-26T11:04:03;100070.09;;;15.34;57.63
75063;BME280;63981;51.052;13.754;2022-12-26T11:06:36;100081.91;;;15.51;57.81
75063;BME280;63981;51.052;13.754;2022-12-26T11:09:03;100067.75;;;15.41;57.28
75063;BME280;63981;51.052;13.754;2022-12-26T11:11:31;100080.00;;;15.73;56.16
75063;BME280;63981;51.052;13.754;2022-12-26T11:14:40;100095.69;;;16.14;55.91
75063;BME280;63981;51.052;13.754;2022-12-26T11:17:11;100096.28;;;16.18;55.07
75063;BME280;63981;51.052;13.754;2022-12-26T11:19:40;100096.28;;;16.08;56.28
75063;BME280;63981;51.052;13.754;2022-12-26T11:22:27;100090.66;;;16.31;55.07
75063;BME280;63981;51.052;13.754;2022-12-26T11:27:35;100094.16;;;16.21;54.98
75063;BME280;63981;51.052;13.754;2022-12-26T11:32:45;100096.22;;;16.76;53.95
75063;BME280;63981;51.052;13.754;2022-12-26T11:35:21;100099.06;;;16.07;54.71
75063;BME280;63981;51.052;13.754;2022-12-26T11:37:52;100079.47;;;16.17;54.20
75063;BME280;63981;51.052;13.754;2022-12-26T11:40:28;100095.78;;;16.61;53.66
75063;BME280;63981;51.052;13.754;2022-12-26T11:42:58;100055.97;;;16.03;54.00
75063;BME280;63981;51.052;13.754;2022-12-26T11:45:26;100092.47;;;15.82;55.06
75063;BME280;63981;51.052;13.754;2022-12-26T11:47:58;100051.50;;;15.34;56.43
75063;BME280;63981;51.052;13.754;2022-12-26T11:50:31;100086.41;;;15.11;57.76
75063;BME280;63981;51.052;13.754;2022-12-26T11:55:37;100079.75;;;15.26;57.19
75063;BME280;63981;51.052;13.754;2022-12-26T11:58:21;100076.50;;;15.22;56.49
75063;BME280;63981;51.052;13.754;2022-12-26T12:03:39;100048.81;;;14.75;57.99
75063;BME280;63981;51.052;13.754;2022-12-26T12:14:05;100078.88;;;14.43;59.41
75063;BME280;63981;51.052;13.754;2022-12-26T12:25:31;100093.13;;;14.22;59.66
75063;BME280;63981;51.052;13.754;2022-12-26T12:33:54;100066.88;;;13.86;61.56
75063;BME280;63981;51.052;13.754;2022-12-26T12:36:58;100061.44;;;13.88;61.07
75063;BME280;63981;51.052;13.754;2022-12-26T12:50:55;100061.81;;;13.83;61.95
75063;BME280;63981;51.052;13.754;2022-12-26T12:53:37;100073.34;;;13.94;61.77
75063;BME280;63981;51.052;13.754;2022-12-26T13:01:18;100080.28;;;13.74;61.95
75063;BME280;63981;51.052;13.754;2022-12-26T13:04:02;100081.50;;;13.70;62.25
75063;BME280;63981;51.052;13.754;2022-12-26T13:06:59;100110.06;;;13.55;62.49
75063;BME280;63981;51.052;13.754;2022-12-26T13:09:34;100162.06;;;13.56;63.34
75063;BME280;63981;51.052;13.754;2022-12-26T13:12:08;100206.03;;;11.58;70.17
75063;BME280;63981;51.052;13.754;2022-12-26T13:14:39;100207.06;;;10.66;75.05
75063;BME280;63981;51.052;13.754;2022-12-26T13:17:13;100212.63;;;10.49;76.63
75063;BME280;63981;51.052;13.754;2022-12-26T13:19:56;100187.16;;;10.08;77.84
75063;BME280;63981;51.052;13.754;2022-12-26T13:22:28;100207.19;;;10.11;79.27
75063;BME280;63981;51.052;13.754;2022-12-26T13:25:17;100159.16;;;9.66;80.68
75063;BME280;63981;51.052;13.754;2022-12-26T13:27:45;100195.19;;;9.65;81.29
75063;BME280;63981;51.052;13.754;2022-12-26T13:30:14;100202.25;;;9.51;82.37
75063;BME280;63981;51.052;13.754;2022-12-26T13:32:41;100202.16;;;9.52;82.88
75063;BME280;63981;51.052;13.754;2022-12-26T13:38:10;100202.06;;;9.39;82.77
75063;BME280;63981;51.052;13.754;2022-12-26T13:40:37;100178.00;;;9.31;83.59
75063;BME280;63981;51.052;13.754;2022-12-26T13:43:23;100182.41;;;9.02;84.37
75063;BME280;63981;51.052;13.754;2022-12-26T13:46:35;100185.03;;;9.02;85.13
75063;BME280;63981;51.052;13.754;2022-12-26T13:49:01;100146.97;;;8.79;85.73
75063;BME280;63981;51.052;13.754;2022-12-26T13:51:48;100166.03;;;8.83;86.78
75063;BME280;63981;51.052;13.754;2022-12-26T13:54:15;100189.81;;;8.96;86.96
75063;BME280;63981;51.052;13.754;2022-12-26T14:01:56;100175.81;;;8.95;87.65
75063;BME280;63981;51.052;13.754;2022-12-26T14:13:31;100175.91;;;8.94;87.20
75063;BME280;63981;51.052;13.754;2022-12-26T14:32:39;100159.53;;;8.60;87.41
75063;BME280;63981;51.052;13.754;2022-12-26T14:40:31;100188.16;;;8.65;87.76
75063;BME280;63981;51.052;13.754;2022-12-26T14:45:41;100186.94;;;9.14;86.12
75063;BME280;63981;51.052;13.754;2022-12-26T14:53:40;100197.59;;;8.97;86.61
75063;BME280;63981;51.052;13.754;2022-12-26T15:17:17;100183.69;;;8.81;84.53
75063;BME280;63981;51.052;13.754;2022-12-26T15:25:54;100204.53;;;8.84;83.50
75063;BME280;63981;51.052;13.754;2022-12-26T15:29:52;100215.94;;;8.69;83.73
75063;BME280;63981;51.052;13.754;2022-12-26T15:37:29;100218.38;;;8.42;85.34
75063;BME280;63981;51.052;13.754;2022-12-26T15:50:26;100228.41;;;8.35;84.80
75063;BME280;63981;51.052;13.754;2022-12-26T15:53:23;100229.13;;;8.53;84.85
75063;BME280;63981;51.052;13.754;2022-12-26T15:56:11;100233.53;;;9.27;81.65
75063;BME280;63981;51.052;13.754;2022-12-26T15:59:02;100226.28;;;9.30;81.17
75063;BME280;63981;51.052;13.754;2022-12-26T16:01:43;100216.50;;;9.18;81.81
75063;BME280;63981;51.052;13.754;2022-12-26T16:04:28;100207.66;;;9.05;81.30
75063;BME280;63981;51.052;13.754;2022-12-26T16:07:06;100221.41;;;9.67;79.14
75063;BME280;63981;51.052;13.754;2022-12-26T16:09:45;100220.13;;;9.87;78.13
75063;BME280;63981;51.052;13.754;2022-12-26T16:14:49;100216.53;;;9.88;78.12
75063;BME280;63981;51.052;13.754;2022-12-26T16:17:16;100223.00;;;9.55;79.10
75063;BME280;63981;51.052;13.754;2022-12-26T16:19:44;100225.41;;;9.72;78.89
75063;BME280;63981;51.052;13.754;2022-12-26T16:22:36;100226.19;;;9.60;79.11
75063;BME280;63981;51.052;13.754;2022-12-26T16:25:14;100223.75;;;9.43;79.98
75063;BME280;63981;51.052;13.754;2022-12-26T16:27:41;100218.09;;;9.35;80.09
75063;BME280;63981;51.052;13.754;2022-12-26T16:30:17;100243.56;;;9.77;78.20
75063;BME280;63981;51.052;13.754;2022-12-26T16:32:43;100232.56;;;9.70;78.38
75063;BME280;63981;51.052;13.754;2022-12-26T16:35:31;100237.09;;;9.54;78.84
75063;BME280;63981;51.052;13.754;2022-12-26T16:37:59;100225.53;;;9.42;79.42
75063;BME280;63981;51.052;13.754;2022-12-26T16:40:37;100228.72;;;9.62;79.66
75063;BME280;63981;51.052;13.754;2022-12-26T16:43:21;100224.22;;;9.78;78.85
75063;BME280;63981;51.052;13.754;2022-12-26T16:45:53;100221.38;;;9.81;78.81
75063;BME280;63981;51.052;13.754;2022-12-26T16:48:39;100213.41;;;9.68;79.14
75063;BME280;63981;51.052;13.754;2022-12-26T16:51:31;100223.44;;;9.62;79.64
75063;BME280;63981;51.052;13.754;2022-12-26T16:56:47;100220.16;;;9.58;79.64
75063;BME280;63981;51.052;13.754;2022-12-26T16:59:17;100208.19;;;8.81;81.40
75063;BME280;63981;51.052;13.754;2022-12-26T17:01:48;100240.97;;;8.90;81.60
75063;BME280;63981;51.052;13.754;2022-12-26T17:04:19;100247.28;;;9.02;82.17
75063;BME280;63981;51.052;13.754;2022-12-26T17:06:50;100211.81;;;9.37;80.40
75063;BME280;63981;51.052;13.754;2022-12-26T17:09:17;100208.22;;;9.67;78.82
75063;BME280;63981;51.052;13.754;2022-12-26T17:14:20;100217.53;;;9.15;80.54
75063;BME280;63981;51.052;13.754;2022-12-26T17:16:55;100222.31;;;9.37;80.67
75063;BME280;63981;51.052;13.754;2022-12-26T17:19:26;100225.75;;;9.95;78.34
75063;BME280;63981;51.052;13.754;2022-12-26T17:22:35;100215.78;;;10.00;77.79
75063;BME280;63981;51.052;13.754;2022-12-26T17:27:42;100212.63;;;9.81;78.77
75063;BME280;63981;51.052;13.754;2022-12-26T17:30:27;100210.31;;;9.33;80.41
75063;BME280;63981;51.052;13.754;2022-12-26T17:32:55;100193.69;;;9.88;77.65
75063;BME280;63981;51.052;13.754;2022-12-26T17:35:26;100204.00;;;9.64;78.65
75063;BME280;63981;51.052;13.754;2022-12-26T17:38:05;100213.88;;;9.61;79.46
75063;BME280;63981;51.052;13.754;2022-12-26T17:40:40;100225.13;;;9.91;77.94
75063;BME280;63981;51.052;13.754;2022-12-26T17:45:36;100220.53;;;9.81;78.51
75063;BME280;63981;51.052;13.754;2022-12-26T17:48:03;100205.28;;;10.13;76.91
75063;BME280;63981;51.052;13.754;2022-12-26T17:50:32;100184.91;;;9.61;78.03
75063;BME280;63981;51.052;13.754;2022-12-26T17:55:50;100202.72;;;9.98;76.72
75063;BME280;63981;51.052;13.754;2022-12-26T17:58:19;100207.19;;;10.11;75.91
75063;BME280;63981;51.052;13.754;2022-12-26T18:00:46;100209.03;;;9.96;76.55
75063;BME280;63981;51.052;13.754;2022-12-26T18:03:12;100224.56;;;10.27;75.16
75063;BME280;63981;51.052;13.754;2022-12-26T18:05:38;100219.78;;;10.20;75.17
75063;BME280;63981;51.052;13.754;2022-12-26T18:08:05;100222.88;;;10.12;75.77
75063;BME280;63981;51.052;13.754;2022-12-26T18:10:34;100219.81;;;10.05;75.55
75063;BME280;63981;51.052;13.754;2022-12-26T18:13:01;100224.88;;;10.23;75.13
75063;BME280;63981;51.052;13.754;2022-12-26T18:15:28;100222.53;;;10.45;74.06
75063;BME280;63981;51.052;13.754;2022-12-26T18:17:55;100210.47;;;10.41;73.93
75063;BME280;63981;51.052;13.754;2022-12-26T18:20:27;100213.69;;;10.46;73.31
75063;BME280;63981;51.052;13.754;2022-12-26T18:22:54;100211.06;;;10.59;73.01
75063;BME280;63981;51.052;13.754;2022-12-26T18:25:22;100179.78;;;10.27;73.60
75063;BME280;63981;51.052;13.754;2022-12-26T18:27:49;100199.53;;;10.20;74.14
75063;BME280;63981;51.052;13.754;2022-12-26T18:30:20;100169.09;;;10.43;72.82
75063;BME280;63981;51.052;13.754;2022-12-26T18:32:48;100196.78;;;10.36;73.17
75063;BME280;63981;51.052;13.754;2022-12-26T18:35:15;100209.09;;;10.36;73.40
75063;BME280;63981;51.052;13.754;2022-12-26T18:37:49;100213.81;;;10.57;72.90
75063;BME280;63981;51.052;13.754;2022-12-26T18:40:38;100214.50;;;10.99;71.27
75063;BME280;63981;51.052;13.754;2022-12-26T18:43:06;100215.44;;;10.85;72.06
75063;BME280;63981;51.052;13.754;2022-12-26T18:45:32;100206.69;;;10.72;72.28
75063;BME280;63981;51.052;13.754;2022-12-26T18:47:59;100165.44;;;10.58;72.83
75063;BME280;63981;51.052;13.754;2022-12-26T18:50:26;100207.44;;;11.00;71.28
75063;BME280;63981;51.052;13.754;2022-12-26T18:52:53;100202.97;;;10.62;72.90
75063;BME280;63981;51.052;13.754;2022-12-26T18:55:19;100195.31;;;10.84;72.00